createdAt,value
2023-02-05T00:01:42.796Z,-3.04
2023-02-05T00:04:10.500Z,-3.04
2023-02-05T00:06:38.043Z,-3.05
2023-02-05T00:09:06.981Z,-3.07
2023-02-05T00:11:34.618Z,-3.08
2023-02-05T00:14:02.287Z,-3.10
2023-02-05T00:16:30.506Z,-3.10
2023-02-05T00:18:58.437Z,-3.10
2023-02-05T00:21:26.202Z,-3.09
2023-02-05T00:23:54.680Z,-3.09
2023-02-05T00:26:23.576Z,-3.08
2023-02-05T00:28:51.268Z,-3.07
2023-02-05T00:31:21.213Z,-3.08
2023-02-05T00:33:49.689Z,-3.10
2023-02-05T00:36:18.154Z,-3.09
2023-02-05T00:38:46.923Z,-3.12
2023-02-05T00:41:15.062Z,-3.11
2023-02-05T00:43:44.307Z,-3.12
2023-02-05T00:46:13.526Z,-3.11
2023-02-05T00:48:42.797Z,-3.09
2023-02-05T00:51:11.304Z,-3.11
2023-02-05T00:53:40.716Z,-3.12
2023-02-05T00:56:08.342Z,-3.15
2023-02-05T00:58:36.448Z,-3.17
2023-02-05T01:01:05.933Z,-3.18
2023-02-05T01:03:33.621Z,-3.18
2023-02-05T01:06:03.224Z,-3.17
2023-02-05T01:08:30.960Z,-3.20
2023-02-05T01:10:58.588Z,-3.19
2023-02-05T01:13:26.501Z,-3.18
2023-02-05T01:15:54.250Z,-3.18
2023-02-05T01:18:23.226Z,-3.18
2023-02-05T01:20:50.821Z,-3.18
2023-02-05T01:23:18.648Z,-3.21
2023-02-05T01:25:46.277Z,-3.22
2023-02-05T01:28:15.737Z,-3.23
2023-02-05T01:30:43.466Z,-3.25
2023-02-05T01:33:11.143Z,-3.25
2023-02-05T01:35:40.038Z,-3.27
2023-02-05T01:38:08.493Z,-3.29
2023-02-05T01:40:36.076Z,-3.31
2023-02-05T01:43:03.948Z,-3.32
2023-02-05T01:46:16.204Z,-3.34
2023-02-05T01:48:49.578Z,-3.39
2023-02-05T01:51:18.909Z,-3.41
2023-02-05T01:53:48.520Z,-3.43
2023-02-05T01:56:20.674Z,-3.46
2023-02-05T01:58:52.508Z,-3.48
2023-02-05T02:01:20.281Z,-3.51
2023-02-05T02:03:49.023Z,-3.54
2023-02-05T02:06:17.976Z,-3.57
2023-02-05T02:08:45.685Z,-3.59
2023-02-05T02:11:17.235Z,-3.63
2023-02-05T02:13:46.893Z,-3.64
2023-02-05T02:16:16.093Z,-3.67
2023-02-05T02:18:45.113Z,-3.69
2023-02-05T02:21:33.179Z,-3.72
2023-02-05T02:24:21.247Z,-3.77
2023-02-05T02:27:00.966Z,-3.79
2023-02-05T02:29:38.660Z,-3.83
2023-02-05T02:32:15.572Z,-3.85
2023-02-05T02:34:48.982Z,-3.87
2023-02-05T02:37:25.806Z,-3.88
2023-02-05T02:40:00.663Z,-3.92
2023-02-05T02:42:34.060Z,-3.94
2023-02-05T02:45:08.587Z,-3.97
2023-02-05T02:47:41.118Z,-3.99
2023-02-05T02:50:13.302Z,-4.01
2023-02-05T02:52:45.129Z,-4.04
2023-02-05T02:55:15.293Z,-4.04
2023-02-05T02:57:49.277Z,-4.06
2023-02-05T03:00:21.454Z,-4.10
2023-02-05T03:02:51.505Z,-4.11
2023-02-05T03:05:23.378Z,-4.13
2023-02-05T03:07:55.448Z,-4.13
2023-02-05T03:10:33.274Z,-4.13
2023-02-05T03:13:01.358Z,-4.14
2023-02-05T03:15:32.272Z,-4.16
2023-02-05T03:18:00.306Z,-4.17
2023-02-05T03:20:32.315Z,-4.17
2023-02-05T03:23:00.293Z,-4.19
2023-02-05T03:25:30.160Z,-4.19
2023-02-05T03:28:00.140Z,-4.20
2023-02-05T03:30:40.409Z,-4.23
2023-02-05T03:33:21.610Z,-4.25
2023-02-05T03:35:59.609Z,-4.26
2023-02-05T03:38:40.762Z,-4.28
2023-02-05T03:41:20.832Z,-4.30
2023-02-05T03:43:59.404Z,-4.33
2023-02-05T03:46:36.531Z,-4.33
2023-02-05T03:49:15.509Z,-4.34
2023-02-05T03:51:51.177Z,-4.35
2023-02-05T03:54:27.412Z,-4.35
2023-02-05T03:57:02.053Z,-4.35
2023-02-05T03:59:32.854Z,-4.35
2023-02-05T04:02:04.779Z,-4.36
2023-02-05T04:04:37.069Z,-4.37
2023-02-05T04:07:07.421Z,-4.38
2023-02-05T04:09:36.855Z,-4.40
2023-02-05T04:12:05.994Z,-4.41
2023-02-05T04:14:34.701Z,-4.42
2023-02-05T04:17:03.661Z,-4.42
2023-02-05T04:19:31.346Z,-4.42
2023-02-05T04:22:01.205Z,-4.42
2023-02-05T04:24:32.072Z,-4.42
2023-02-05T04:27:00.017Z,-4.42
2023-02-05T04:29:27.966Z,-4.44
2023-02-05T04:31:56.831Z,-4.43
2023-02-05T04:34:26.051Z,-4.43
2023-02-05T04:36:54.098Z,-4.43
2023-02-05T04:39:22.490Z,-4.44
2023-02-05T04:41:50.231Z,-4.41
2023-02-05T04:44:17.905Z,-4.41
2023-02-05T04:46:45.570Z,-4.40
2023-02-05T04:49:13.190Z,-4.40
2023-02-05T04:51:42.208Z,-4.41
2023-02-05T04:54:09.811Z,-4.39
2023-02-05T04:56:37.693Z,-4.39
2023-02-05T04:59:05.341Z,-4.39
2023-02-05T05:01:33.091Z,-4.37
2023-02-05T05:04:00.750Z,-4.35
2023-02-05T05:06:28.640Z,-4.34
2023-02-05T05:08:57.662Z,-4.34
2023-02-05T05:11:25.824Z,-4.34
2023-02-05T05:13:53.427Z,-4.33
2023-02-05T05:16:21.366Z,-4.32
2023-02-05T05:18:49.026Z,-4.31
2023-02-05T05:21:16.645Z,-4.30
2023-02-05T05:23:44.256Z,-4.30
2023-02-05T05:26:13.923Z,-4.31
2023-02-05T05:28:41.757Z,-4.29
2023-02-05T05:31:10.999Z,-4.29
2023-02-05T05:33:38.915Z,-4.28
2023-02-05T05:36:07.833Z,-4.25
2023-02-05T05:38:35.811Z,-4.24
2023-02-05T05:41:21.222Z,-4.22
2023-02-05T05:43:51.128Z,-4.19
2023-02-05T05:46:22.936Z,-4.18
2023-02-05T05:48:51.825Z,-4.19
2023-02-05T05:51:19.546Z,-4.18
2023-02-05T05:53:47.787Z,-4.19
2023-02-05T05:56:16.359Z,-4.19
2023-02-05T05:58:44.304Z,-4.20
2023-02-05T06:01:14.902Z,-4.21
2023-02-05T06:03:42.565Z,-4.21
2023-02-05T06:06:11.796Z,-4.19
2023-02-05T06:08:39.518Z,-4.19
2023-02-05T06:11:07.698Z,-4.19
2023-02-05T06:13:35.735Z,-4.17
2023-02-05T06:16:03.585Z,-4.19
2023-02-05T06:18:32.695Z,-4.17
2023-02-05T06:21:01.679Z,-4.15
2023-02-05T06:23:29.268Z,-4.15
2023-02-05T06:25:56.933Z,-4.14
2023-02-05T06:28:24.762Z,-4.13
2023-02-05T06:30:52.471Z,-4.12
2023-02-05T06:33:20.139Z,-4.12
2023-02-05T06:35:49.135Z,-4.08
2023-02-05T06:38:16.742Z,-4.07
2023-02-05T06:40:44.334Z,-4.04
2023-02-05T06:43:11.960Z,-4.03
2023-02-05T06:45:39.626Z,-4.01
2023-02-05T06:48:07.604Z,-4.00
2023-02-05T06:50:35.263Z,-4.00
2023-02-05T06:53:04.427Z,-3.99
2023-02-05T06:55:32.130Z,-3.99
2023-02-05T06:57:59.855Z,-3.97
2023-02-05T07:00:27.482Z,-3.95
2023-02-05T07:02:55.214Z,-3.94
2023-02-05T07:05:22.977Z,-3.94
2023-02-05T07:07:50.617Z,-3.93
2023-02-05T07:10:20.093Z,-3.91
2023-02-05T07:12:47.716Z,-3.90
2023-02-05T07:15:15.338Z,-3.88
2023-02-05T07:17:43.023Z,-3.86
2023-02-05T07:20:11.774Z,-3.84
2023-02-05T07:22:39.410Z,-3.80
2023-02-05T07:25:07.874Z,-3.78
2023-02-05T07:27:36.826Z,-3.75
2023-02-05T07:30:05.217Z,-3.73
2023-02-05T07:32:32.896Z,-3.71
2023-02-05T07:35:00.558Z,-3.69
2023-02-05T07:37:28.233Z,-3.68
2023-02-05T07:39:55.827Z,-3.67
2023-02-05T07:42:23.826Z,-3.64
2023-02-05T07:44:58.627Z,-3.61
2023-02-05T07:47:26.344Z,-3.61
2023-02-05T07:49:54.042Z,-3.58
2023-02-05T07:52:21.702Z,-3.57
2023-02-05T07:54:49.431Z,-3.53
2023-02-05T07:57:17.145Z,-3.50
2023-02-05T07:59:44.743Z,-3.45
2023-02-05T08:02:13.768Z,-3.40
2023-02-05T08:04:41.569Z,-3.39
2023-02-05T08:07:10.426Z,-3.36
2023-02-05T08:09:38.194Z,-3.34
2023-02-05T08:12:06.782Z,-3.34
2023-02-05T08:14:34.419Z,-3.31
2023-02-05T08:17:02.157Z,-3.28
2023-02-05T08:19:31.351Z,-3.26
2023-02-05T08:21:58.972Z,-3.21
2023-02-05T08:24:26.611Z,-3.18
2023-02-05T08:26:54.285Z,-3.13
2023-02-05T08:29:21.900Z,-3.11
2023-02-05T08:31:49.625Z,-3.09
2023-02-05T08:34:19.845Z,-3.06
2023-02-05T08:36:49.637Z,-3.03
2023-02-05T08:39:17.276Z,-2.98
2023-02-05T08:41:45.194Z,-2.97
2023-02-05T08:44:13.398Z,-2.94
2023-02-05T08:46:49.675Z,-2.92
2023-02-05T08:49:18.720Z,-2.88
2023-02-05T08:51:46.867Z,-2.86
2023-02-05T08:54:16.124Z,-2.81
2023-02-05T08:56:45.729Z,-2.79
2023-02-05T08:59:13.908Z,-2.74
2023-02-05T09:01:43.050Z,-2.70
2023-02-05T09:04:15.186Z,-2.66
2023-02-05T09:06:43.584Z,-2.61
2023-02-05T09:09:11.872Z,-2.57
2023-02-05T09:11:41.189Z,-2.52
2023-02-05T09:14:09.955Z,-2.48
2023-02-05T09:16:37.961Z,-2.43
2023-02-05T09:19:06.273Z,-2.40
2023-02-05T09:21:33.984Z,-2.35
2023-02-05T09:24:01.777Z,-2.29
2023-02-05T09:26:29.508Z,-2.25
2023-02-05T09:28:58.823Z,-2.19
2023-02-05T09:31:26.601Z,-2.16
2023-02-05T09:33:55.741Z,-2.09
2023-02-05T09:36:24.648Z,-2.04
2023-02-05T09:39:11.914Z,-2.00
2023-02-05T09:41:49.945Z,-1.95
2023-02-05T09:44:29.367Z,-1.90
2023-02-05T09:47:06.668Z,-1.85
2023-02-05T09:49:39.558Z,-1.82
2023-02-05T09:52:15.576Z,-1.78
2023-02-05T09:54:47.373Z,-1.75
2023-02-05T09:57:17.648Z,-1.68
2023-02-05T09:59:48.509Z,-1.63
2023-02-05T10:02:25.736Z,-1.58
2023-02-05T10:04:54.812Z,-1.52
2023-02-05T10:07:29.816Z,-1.48
2023-02-05T10:10:26.639Z,-1.41
2023-02-05T10:13:26.974Z,-1.34
2023-02-05T10:16:20.805Z,-1.31
2023-02-05T10:19:00.054Z,-1.25
2023-02-05T10:21:43.135Z,-1.19
2023-02-05T10:24:40.462Z,-1.15
2023-02-05T10:27:15.555Z,-1.09
2023-02-05T10:29:52.606Z,-1.04
2023-02-05T10:32:24.054Z,-0.98
2023-02-05T10:34:58.008Z,-0.93
2023-02-05T10:37:36.549Z,-0.89
2023-02-05T10:40:14.242Z,-0.84
2023-02-05T10:42:45.757Z,-0.79
2023-02-05T10:45:19.173Z,-0.75
2023-02-05T10:48:02.015Z,-0.67
2023-02-05T10:50:37.729Z,-0.62
2023-02-05T10:53:05.477Z,-0.58
2023-02-05T10:55:33.633Z,-0.53
2023-02-05T10:58:08.937Z,-0.47
2023-02-05T11:00:36.933Z,-0.42
2023-02-05T11:03:07.182Z,-0.34
2023-02-05T11:05:39.220Z,-0.24
2023-02-05T11:08:34.717Z,-0.15
2023-02-05T11:11:04.655Z,-0.06
2023-02-05T11:13:32.554Z,0.04
2023-02-05T11:16:04.245Z,0.16
2023-02-05T11:18:37.486Z,0.26
2023-02-05T11:21:08.654Z,0.36
2023-02-05T11:23:40.153Z,0.42
2023-02-05T11:26:18.687Z,0.46
2023-02-05T11:28:46.478Z,0.49
2023-02-05T11:31:25.360Z,0.53
2023-02-05T11:34:11.380Z,0.59
2023-02-05T11:36:48.452Z,0.65
2023-02-05T11:39:31.002Z,0.72
2023-02-05T11:41:58.817Z,0.78
2023-02-05T11:44:30.418Z,0.82
2023-02-05T11:47:01.776Z,0.85
2023-02-05T11:49:36.036Z,0.84
2023-02-05T11:52:10.664Z,0.85
2023-02-05T11:54:40.165Z,0.88
2023-02-05T11:57:29.081Z,0.92
2023-02-05T11:59:57.964Z,0.94
2023-02-05T12:02:33.077Z,0.97
2023-02-05T12:05:08.523Z,1.02
2023-02-05T12:07:40.918Z,1.07
2023-02-05T12:10:16.797Z,1.13
2023-02-05T12:12:54.923Z,1.22
2023-02-05T12:15:26.502Z,1.28
2023-02-05T12:18:05.502Z,1.35
2023-02-05T12:20:39.243Z,1.42
2023-02-05T12:23:26.706Z,1.52
2023-02-05T12:26:05.673Z,1.60
2023-02-05T12:28:44.988Z,1.71
2023-02-05T12:31:24.234Z,1.81
2023-02-05T12:34:09.975Z,1.94
2023-02-05T12:36:53.718Z,2.04
2023-02-05T12:39:36.121Z,2.17
2023-02-05T12:42:16.874Z,2.24
2023-02-05T12:44:59.441Z,2.31
2023-02-05T12:47:42.510Z,2.44
2023-02-05T12:50:28.447Z,2.59
2023-02-05T12:53:13.957Z,2.66
2023-02-05T12:55:52.011Z,2.71
2023-02-05T12:58:21.743Z,2.69
2023-02-05T13:00:52.551Z,2.66
2023-02-05T13:03:28.167Z,2.58
2023-02-05T13:05:59.384Z,2.53
2023-02-05T13:08:39.445Z,2.46
2023-02-05T13:11:13.297Z,2.41
2023-02-05T13:13:48.958Z,2.41
2023-02-05T13:16:18.785Z,2.39
2023-02-05T13:18:51.369Z,2.38
2023-02-05T13:21:38.908Z,2.37
2023-02-05T13:24:41.018Z,2.38
2023-02-05T13:27:37.305Z,2.36
2023-02-05T13:30:09.671Z,2.37
2023-02-05T13:32:38.791Z,2.35
2023-02-05T13:35:09.190Z,2.36
2023-02-05T13:37:55.895Z,2.34
2023-02-05T13:40:36.637Z,2.34
2023-02-05T13:43:43.843Z,2.32
2023-02-05T13:46:38.434Z,2.35
2023-02-05T13:49:42.857Z,2.37
2023-02-05T13:52:23.371Z,2.40
2023-02-05T13:55:24.984Z,2.50
2023-02-05T13:58:21.344Z,2.64
2023-02-05T14:01:00.469Z,2.75
2023-02-05T14:03:35.335Z,2.85
2023-02-05T14:06:21.726Z,2.96
2023-02-05T14:08:50.854Z,3.05
2023-02-05T14:11:19.829Z,3.12
2023-02-05T14:14:21.394Z,3.20
2023-02-05T14:16:51.046Z,3.26
2023-02-05T14:19:23.011Z,3.31
2023-02-05T14:21:59.532Z,3.33
2023-02-05T14:24:42.088Z,3.30
2023-02-05T14:27:55.190Z,3.22
2023-02-05T14:30:46.671Z,3.22
2023-02-05T14:33:43.179Z,3.20
2023-02-05T14:36:40.758Z,3.15
2023-02-05T14:39:21.508Z,3.14
2023-02-05T14:41:55.008Z,3.15
2023-02-05T14:44:29.481Z,3.17
2023-02-05T14:47:03.331Z,3.12
2023-02-05T14:49:40.432Z,3.07
2023-02-05T14:52:20.248Z,3.04
2023-02-05T14:54:52.066Z,3.03
2023-02-05T14:57:25.875Z,3.00
2023-02-05T14:59:57.310Z,2.97
2023-02-05T15:02:56.801Z,2.93
2023-02-05T15:05:32.760Z,2.94
2023-02-05T15:08:10.054Z,2.96
2023-02-05T15:10:46.696Z,2.95
2023-02-05T15:13:16.367Z,2.86
2023-02-05T15:16:22.760Z,2.74
2023-02-05T15:18:54.260Z,2.68
2023-02-05T15:21:26.897Z,2.64
2023-02-05T15:24:02.177Z,2.60
2023-02-05T15:26:39.922Z,2.56
2023-02-05T15:29:13.496Z,2.53
2023-02-05T15:31:46.458Z,2.49
2023-02-05T15:34:37.254Z,2.40
2023-02-05T15:37:07.658Z,2.33
2023-02-05T15:39:43.002Z,2.26
2023-02-05T15:42:16.536Z,2.16
2023-02-05T15:44:44.147Z,2.06
2023-02-05T15:47:18.346Z,1.95
2023-02-05T15:49:50.095Z,1.84
2023-02-05T15:52:22.446Z,1.74
2023-02-05T15:54:51.678Z,1.65
2023-02-05T15:57:23.723Z,1.54
2023-02-05T15:59:52.887Z,1.45
2023-02-05T16:02:22.644Z,1.35
2023-02-05T16:04:57.397Z,1.28
2023-02-05T16:07:28.294Z,1.21
2023-02-05T16:09:58.326Z,1.11
2023-02-05T16:12:26.222Z,1.01
2023-02-05T16:15:02.156Z,0.94
2023-02-05T16:17:35.953Z,0.86
2023-02-05T16:20:17.495Z,0.77
2023-02-05T16:22:48.203Z,0.69
2023-02-05T16:25:27.959Z,0.60
2023-02-05T16:27:57.329Z,0.51
2023-02-05T16:30:34.993Z,0.44
2023-02-05T16:33:05.009Z,0.36
2023-02-05T16:35:38.228Z,0.27
2023-02-05T16:38:09.177Z,0.19
2023-02-05T16:40:43.038Z,0.09
2023-02-05T16:43:28.257Z,0.00
2023-02-05T16:46:33.324Z,-0.09
2023-02-05T16:49:02.241Z,-0.19
2023-02-05T16:51:52.853Z,-0.26
2023-02-05T16:54:33.087Z,-0.36
2023-02-05T16:57:05.308Z,-0.45
2023-02-05T16:59:36.324Z,-0.53
2023-02-05T17:02:04.980Z,-0.61
2023-02-05T17:04:34.707Z,-0.69
2023-02-05T17:07:07.000Z,-0.78
2023-02-05T17:09:36.579Z,-0.85
2023-02-05T17:12:36.481Z,-0.94
2023-02-05T17:15:20.938Z,-1.02
2023-02-05T17:17:51.865Z,-1.09
2023-02-05T17:20:22.507Z,-1.16
2023-02-05T17:23:12.130Z,-1.24
2023-02-05T17:25:42.094Z,-1.28
2023-02-05T17:28:17.051Z,-1.36
2023-02-05T17:30:46.403Z,-1.42
2023-02-05T17:33:18.389Z,-1.47
2023-02-05T17:35:46.235Z,-1.52
2023-02-05T17:38:15.602Z,-1.58
2023-02-05T17:40:43.483Z,-1.63
2023-02-05T17:43:11.336Z,-1.70
2023-02-05T17:45:41.587Z,-1.75
2023-02-05T17:48:10.048Z,-1.79
2023-02-05T17:50:37.977Z,-1.86
2023-02-05T17:53:05.680Z,-1.90
2023-02-05T17:55:34.653Z,-1.95
2023-02-05T17:58:02.224Z,-2.00
2023-02-05T18:00:32.853Z,-2.07
2023-02-05T18:03:00.606Z,-2.11
2023-02-05T18:05:28.350Z,-2.16
2023-02-05T18:07:58.626Z,-2.20
2023-02-05T18:10:28.469Z,-2.25
2023-02-05T18:12:57.485Z,-2.30
2023-02-05T18:15:26.623Z,-2.34
2023-02-05T18:17:54.587Z,-2.36
2023-02-05T18:20:22.284Z,-2.42
2023-02-05T18:22:50.234Z,-2.46
2023-02-05T18:25:19.283Z,-2.50
2023-02-05T18:27:48.127Z,-2.55
2023-02-05T18:30:18.508Z,-2.58
2023-02-05T18:32:46.102Z,-2.62
2023-02-05T18:35:14.866Z,-2.65
2023-02-05T18:37:43.006Z,-2.71
2023-02-05T18:40:12.609Z,-2.75
2023-02-05T18:42:41.217Z,-2.79
2023-02-05T18:45:10.002Z,-2.82
2023-02-05T18:47:38.962Z,-2.85
2023-02-05T18:50:10.133Z,-2.88
2023-02-05T18:52:38.185Z,-2.94
2023-02-05T18:55:07.588Z,-2.95
2023-02-05T18:57:35.365Z,-2.97
2023-02-05T19:00:03.144Z,-3.01
2023-02-05T19:02:30.940Z,-3.06
2023-02-05T19:05:00.404Z,-3.08
2023-02-05T19:07:28.475Z,-3.10
2023-02-05T19:09:57.599Z,-3.12
2023-02-05T19:12:25.311Z,-3.13
2023-02-05T19:14:52.966Z,-3.15
2023-02-05T19:17:20.598Z,-3.16
2023-02-05T19:19:50.521Z,-3.17
2023-02-05T19:22:19.451Z,-3.17
2023-02-05T19:24:47.300Z,-3.17
2023-02-05T19:27:15.893Z,-3.19
2023-02-05T19:29:43.908Z,-3.19
2023-02-05T19:32:11.515Z,-3.19
2023-02-05T19:34:40.901Z,-3.19
2023-02-05T19:37:10.627Z,-3.19
2023-02-05T19:39:41.052Z,-3.18
2023-02-05T19:42:08.730Z,-3.19
2023-02-05T19:44:36.357Z,-3.18
2023-02-05T19:47:04.017Z,-3.16
2023-02-05T19:49:31.703Z,-3.16
2023-02-05T19:52:00.016Z,-3.15
2023-02-05T19:54:29.448Z,-3.15
2023-02-05T19:56:58.469Z,-3.14
2023-02-05T19:59:26.125Z,-3.14
2023-02-05T20:01:53.950Z,-3.13
2023-02-05T20:04:24.692Z,-3.13
2023-02-05T20:06:56.557Z,-3.14
2023-02-05T20:09:24.223Z,-3.13
2023-02-05T20:11:54.357Z,-3.11
2023-02-05T20:14:24.185Z,-3.11
2023-02-05T20:16:52.581Z,-3.10
2023-02-05T20:19:21.131Z,-3.08
2023-02-05T20:21:49.047Z,-3.07
2023-02-05T20:24:17.335Z,-3.06
2023-02-05T20:26:47.793Z,-3.06
2023-02-05T20:29:33.051Z,-3.03
2023-02-05T20:32:02.288Z,-3.02
2023-02-05T20:34:33.303Z,-3.01
2023-02-05T20:37:05.245Z,-2.98
2023-02-05T20:39:35.225Z,-2.97
2023-02-05T20:42:03.462Z,-2.97
2023-02-05T20:44:33.809Z,-2.94
2023-02-05T20:47:02.992Z,-2.93
2023-02-05T20:49:30.789Z,-2.91
2023-02-05T20:51:58.560Z,-2.89
2023-02-05T20:54:26.177Z,-2.88
2023-02-05T20:56:57.026Z,-2.86
2023-02-05T20:59:25.192Z,-2.84
2023-02-05T21:01:53.584Z,-2.82
2023-02-05T21:04:22.662Z,-2.81
2023-02-05T21:06:50.374Z,-2.79
2023-02-05T21:09:18.200Z,-2.79
2023-02-05T21:11:46.280Z,-2.79
2023-02-05T21:14:13.958Z,-2.76
2023-02-05T21:16:41.619Z,-2.74
2023-02-05T21:19:09.979Z,-2.72
2023-02-05T21:21:39.026Z,-2.71
2023-02-05T21:24:13.421Z,-2.70
2023-02-05T21:26:42.817Z,-2.69
2023-02-05T21:29:12.519Z,-2.67
2023-02-05T21:31:44.008Z,-2.65
2023-02-05T21:34:14.460Z,-2.65
2023-02-05T21:36:43.438Z,-2.63
2023-02-05T21:39:11.959Z,-2.63
2023-02-05T21:41:39.738Z,-2.61
2023-02-05T21:44:07.375Z,-2.60
2023-02-05T21:46:35.456Z,-2.60
2023-02-05T21:49:04.053Z,-2.60
2023-02-05T21:51:33.994Z,-2.59
2023-02-05T21:54:05.111Z,-2.58
2023-02-05T21:56:34.814Z,-2.60
2023-02-05T21:59:02.566Z,-2.59
2023-02-05T22:01:32.879Z,-2.60
2023-02-05T22:04:02.109Z,-2.61
2023-02-05T22:06:31.557Z,-2.62
2023-02-05T22:08:59.995Z,-2.63
2023-02-05T22:11:29.575Z,-2.62
2023-02-05T22:13:57.783Z,-2.60
2023-02-05T22:16:27.103Z,-2.60
2023-02-05T22:18:55.965Z,-2.60
2023-02-05T22:21:25.402Z,-2.59
2023-02-05T22:23:55.620Z,-2.59
2023-02-05T22:26:24.929Z,-2.58
2023-02-05T22:28:54.303Z,-2.58
2023-02-05T22:31:22.283Z,-2.59
2023-02-05T22:33:51.059Z,-2.57
2023-02-05T22:36:20.972Z,-2.58
2023-02-05T22:38:49.874Z,-2.58
2023-02-05T22:41:19.629Z,-2.58
2023-02-05T22:43:47.328Z,-2.61
2023-02-05T22:46:17.859Z,-2.61
2023-02-05T22:48:47.220Z,-2.64
2023-02-05T22:51:17.795Z,-2.66
2023-02-05T22:53:45.516Z,-2.69
2023-02-05T22:56:14.112Z,-2.71
2023-02-05T22:58:45.256Z,-2.71
2023-02-05T23:01:14.743Z,-2.74
2023-02-05T23:03:45.657Z,-2.78
2023-02-05T23:06:15.055Z,-2.80
2023-02-05T23:08:43.479Z,-2.85
2023-02-05T23:11:14.523Z,-2.86
2023-02-05T23:13:42.986Z,-2.91
2023-02-05T23:16:13.112Z,-2.95
2023-02-05T23:18:43.353Z,-2.98
2023-02-05T23:21:12.393Z,-3.01
2023-02-05T23:23:40.210Z,-3.05
2023-02-05T23:26:09.377Z,-3.08
2023-02-05T23:28:37.348Z,-3.09
2023-02-05T23:31:05.646Z,-3.13
2023-02-05T23:33:33.899Z,-3.17
2023-02-05T23:36:03.672Z,-3.20
2023-02-05T23:38:31.326Z,-3.24
2023-02-05T23:40:59.455Z,-3.27
2023-02-05T23:43:27.863Z,-3.30
2023-02-05T23:45:56.075Z,-3.32
2023-02-05T23:48:23.715Z,-3.38
2023-02-05T23:50:52.219Z,-3.40
2023-02-05T23:53:21.955Z,-3.42
2023-02-05T23:55:51.564Z,-3.46
2023-02-05T23:58:20.942Z,-3.49
